Time;durP1;ratioP1;P1;durP2;ratioP2;P2;SDS_P1;SDS_P2;PMS_P1;PMS_P2;Temp;Humidity;BMP_temperature;BMP_pressure;BME280_temperature;BME280_humidity;BME280_pressure;Samples;Min_cycle;Max_cycle;Signal;HPM_P1;HPM_P2
2023/09/28 00:03:01;;;;;;;2.30;1.50;;;;;;;11.45;100.00;101307.38;104759;1256;65634;-51
2023/09/28 00:05:29;;;;;;;6.90;2.30;;;;;;;11.43;100.00;101308.31;105029;1262;72732;-55
2023/09/28 00:07:57;;;;;;;4.20;1.70;;;;;;;11.42;100.00;101311.73;104417;1264;60567;-53
2023/09/28 00:10:24;;;;;;;1.70;1.60;;;;;;;11.44;100.00;101306.50;104652;1263;60527;-53
2023/09/28 00:12:53;;;;;;;3.00;1.70;;;;;;;11.42;100.00;101307.59;104422;1263;73916;-55
2023/09/28 00:15:21;;;;;;;2.90;2.10;;;;;;;11.41;100.00;101306.20;104297;1257;65631;-55
2023/09/28 00:17:49;;;;;;;4.30;1.50;;;;;;;11.36;100.00;101302.21;104441;1258;71413;-54
2023/09/28 00:20:22;;;;;;;3.50;1.50;;;;;;;11.28;100.00;101300.63;104477;1262;60502;-53
2023/09/28 00:22:54;;;;;;;1.90;1.40;;;;;;;11.22;100.00;101300.06;105003;1258;60651;-52
2023/09/28 00:25:23;;;;;;;8.20;1.10;;;;;;;11.18;100.00;101296.21;104853;1257;72653;-52
2023/09/28 00:27:52;;;;;;;1.60;1.10;;;;;;;11.17;100.00;101296.59;104468;1262;65647;-52
2023/09/28 00:30:21;;;;;;;2.30;1.60;;;;;;;11.18;100.00;101296.40;104177;1260;71569;-53
2023/09/28 00:32:50;;;;;;;3.00;1.40;;;;;;;11.21;100.00;101295.98;105131;1263;61841;-53
2023/09/28 00:35:18;;;;;;;3.70;1.70;;;;;;;11.23;100.00;101295.90;104637;1257;60966;-53
2023/09/28 00:37:46;;;;;;;7.00;1.50;;;;;;;11.20;100.00;101295.27;104304;1258;72770;-52
2023/09/28 00:42:49;;;;;;;3.00;1.50;;;;;;;11.08;100.00;101300.09;104471;1266;71468;-52
2023/09/28 00:45:19;;;;;;;3.00;2.00;;;;;;;11.02;100.00;101302.58;104422;1256;60557;-51
2023/09/28 00:47:46;;;;;;;5.30;2.20;;;;;;;11.02;100.00;101300.42;108438;1256;60503;-54
2023/09/28 00:50:15;;;;;;;2.90;1.40;;;;;;;11.04;100.00;101301.27;108587;1257;73953;-52
2023/09/28 00:53:04;;;;;;;5.60;1.90;;;;;;;11.07;100.00;101296.34;108618;1256;65993;-53
2023/09/28 00:55:32;;;;;;;7.70;1.80;;;;;;;11.10;100.00;101300.20;108484;1256;72484;-52
2023/09/28 00:58:01;;;;;;;8.90;1.80;;;;;;;11.09;100.00;101299.15;108508;1257;61662;-52
2023/09/28 01:00:31;;;;;;;3.40;1.90;;;;;;;11.08;100.00;101299.16;108476;1258;58952;-53
2023/09/28 01:03:02;;;;;;;5.10;1.90;;;;;;;11.11;100.00;101304.48;108630;1257;72645;-54
2023/09/28 01:05:34;;;;;;;10.80;2.30;;;;;;;11.13;100.00;101301.02;108490;1256;66982;-54
2023/09/28 01:08:09;;;;;;;8.90;2.60;;;;;;;11.13;100.00;101299.77;108545;1256;71413;-55
2023/09/28 01:10:38;;;;;;;7.00;1.90;;;;;;;11.11;100.00;101298.93;108773;1256;61988;-52
2023/09/28 01:13:29;;;;;;;5.50;2.20;;;;;;;11.07;100.00;101300.09;108665;1258;59671;-53
2023/09/28 01:15:55;;;;;;;5.40;2.70;;;;;;;11.05;100.00;101298.54;108600;1256;72659;-55
2023/09/28 01:18:22;;;;;;;5.80;2.30;;;;;;;11.04;100.00;101301.10;108567;1259;67059;-54
2023/09/28 01:20:51;;;;;;;3.90;2.30;;;;;;;11.01;100.00;101306.36;108733;1257;73194;-53
2023/09/28 01:23:19;;;;;;;6.80;2.60;;;;;;;10.98;100.00;101304.98;108558;1258;60114;-53
2023/09/28 01:25:47;;;;;;;8.60;2.80;;;;;;;10.98;100.00;101307.13;105111;1258;60622;-52
2023/09/28 01:28:18;;;;;;;6.60;2.50;;;;;;;10.99;100.00;101302.62;108406;1256;73846;-54
2023/09/28 01:30:46;;;;;;;5.20;1.80;;;;;;;10.99;100.00;101298.49;105208;1263;66137;-52
2023/09/28 01:33:14;;;;;;;6.70;2.80;;;;;;;10.94;100.00;101302.04;104237;1263;74810;-52
2023/09/28 01:35:41;;;;;;;6.70;2.10;;;;;;;10.88;100.00;101300.05;104463;1257;60634;-55
2023/09/28 01:38:31;;;;;;;2.60;2.40;;;;;;;10.82;100.00;101302.16;104240;1256;60058;-52
2023/09/28 01:40:58;;;;;;;6.30;1.90;;;;;;;10.82;100.00;101302.34;104707;1256;73917;-54
2023/09/28 01:43:25;;;;;;;2.40;1.80;;;;;;;10.85;100.00;101297.79;104499;1257;65976;-54
2023/09/28 01:45:53;;;;;;;5.80;1.90;;;;;;;10.90;100.00;101299.44;104443;1262;72666;-53
2023/09/28 01:48:20;;;;;;;2.40;1.60;;;;;;;10.94;100.00;101299.17;104302;1256;60533;-54
2023/09/28 01:50:48;;;;;;;3.30;2.30;;;;;;;10.97;100.00;101295.49;104528;1262;60620;-54
2023/09/28 01:53:15;;;;;;;5.00;2.20;;;;;;;10.99;100.00;101291.30;104716;1262;73894;-51
2023/09/28 01:55:42;;;;;;;4.20;2.10;;;;;;;11.00;100.00;101296.50;104451;1262;67019;-51
2023/09/28 01:58:10;;;;;;;5.10;2.10;;;;;;;10.98;100.00;101300.48;104992;1258;71477;-52
2023/09/28 02:00:37;;;;;;;4.40;2.20;;;;;;;10.98;100.00;101305.52;104462;1256;60549;-53
2023/09/28 02:03:08;;;;;;;2.20;1.60;;;;;;;10.98;100.00;101304.27;104525;1261;62091;-53
2023/09/28 02:05:37;;;;;;;7.40;1.70;;;;;;;10.97;100.00;101306.63;104379;1261;73084;-54
2023/09/28 02:08:05;;;;;;;3.60;2.30;;;;;;;10.96;100.00;101309.39;104331;1256;65081;-55
2023/09/28 02:10:33;;;;;;;2.00;1.70;;;;;;;10.95;100.00;101308.13;105012;1260;71220;-53
2023/09/28 02:13:00;;;;;;;5.60;1.70;;;;;;;10.96;100.00;101306.33;104351;1256;61619;-54
2023/09/28 02:15:28;;;;;;;3.60;1.80;;;;;;;10.95;100.00;101301.84;104374;1264;60381;-53
2023/09/28 02:17:55;;;;;;;4.30;1.80;;;;;;;10.95;100.00;101300.23;104609;1257;72685;-55
2023/09/28 02:20:23;;;;;;;3.90;1.80;;;;;;;10.94;100.00;101296.48;104245;1261;67017;-53
2023/09/28 02:22:54;;;;;;;2.80;1.90;;;;;;;10.90;100.00;101302.51;105787;1259;71465;-53
2023/09/28 02:25:24;;;;;;;6.30;2.40;;;;;;;10.79;100.00;101302.98;104548;1257;60549;-55
2023/09/28 02:27:52;;;;;;;2.90;2.10;;;;;;;10.72;100.00;101299.73;104323;1260;61071;-54
2023/09/28 02:30:22;;;;;;;4.90;2.00;;;;;;;10.72;100.00;101302.80;105219;1257;74050;-54
2023/09/28 02:32:51;;;;;;;7.50;2.40;;;;;;;10.75;100.00;101305.40;104433;1258;65685;-53
2023/09/28 02:35:18;;;;;;;3.70;2.30;;;;;;;10.77;100.00;101301.23;105429;1257;72734;-53
2023/09/28 02:37:48;;;;;;;4.70;1.80;;;;;;;10.81;100.00;101306.14;104533;1260;60644;-53
2023/09/28 02:40:17;;;;;;;3.10;2.10;;;;;;;10.83;100.00;101305.91;104415;1260;61164;-52
2023/09/28 02:42:48;;;;;;;3.10;2.40;;;;;;;10.81;100.00;101304.34;104548;1259;73949;-51
2023/09/28 02:45:16;;;;;;;5.90;2.00;;;;;;;10.80;100.00;101306.55;104330;1258;65752;-52
2023/09/28 02:47:44;;;;;;;3.90;1.90;;;;;;;10.78;100.00;101304.27;104419;1258;72439;-52
2023/09/28 02:50:13;;;;;;;2.70;1.70;;;;;;;10.72;100.00;101305.11;105709;1259;60946;-54
2023/09/28 02:52:42;;;;;;;5.60;2.00;;;;;;;10.64;100.00;101306.57;105419;1263;59244;-52
2023/09/28 02:55:13;;;;;;;5.40;2.00;;;;;;;10.55;100.00;101302.46;105161;1259;73156;-52
2023/09/28 02:57:41;;;;;;;6.50;1.90;;;;;;;10.49;100.00;101303.85;105014;1259;64780;-54
2023/09/28 03:00:52;;;;;;;1.80;1.60;;;;;;;10.45;100.00;101303.79;104335;1258;72680;-54
2023/09/28 03:03:05;;;;;;;2.60;1.30;;;;;;;10.39;100.00;101304.45;104336;1258;60477;-52
2023/09/28 03:05:33;;;;;;;6.30;1.30;;;;;;;10.36;100.00;101305.98;105155;1259;60419;-54
2023/09/28 03:08:01;;;;;;;5.20;1.50;;;;;;;10.35;100.00;101303.85;105011;1258;74094;-52
2023/09/28 03:10:28;;;;;;;1.90;1.20;;;;;;;10.37;100.00;101304.52;104984;1258;67584;-53
2023/09/28 03:12:57;;;;;;;7.30;2.40;;;;;;;10.38;100.00;101303.61;107829;1258;74803;-54
2023/09/28 03:15:24;;;;;;;2.70;1.30;;;;;;;10.37;100.00;101302.36;104413;1257;62344;-51
2023/09/28 03:17:52;;;;;;;4.80;1.70;;;;;;;10.32;100.00;101301.20;104493;1257;60613;-52
2023/09/28 03:20:21;;;;;;;3.40;2.50;;;;;;;10.27;100.00;101301.70;104409;1257;73779;-53
2023/09/28 03:22:49;;;;;;;4.00;2.30;;;;;;;10.20;100.00;101298.61;104914;1257;68062;-54
2023/09/28 03:25:21;;;;;;;2.30;1.50;;;;;;;10.18;100.00;101295.98;105029;1257;72365;-52
2023/09/28 03:27:50;;;;;;;3.60;2.00;;;;;;;10.19;100.00;101295.95;104362;1261;60607;-54
2023/09/28 03:30:20;;;;;;;2.30;1.70;;;;;;;10.22;100.00;101295.87;104484;1257;60425;-53
2023/09/28 03:32:48;;;;;;;2.70;1.90;;;;;;;10.25;100.00;101296.71;106963;1257;73589;-53
2023/09/28 03:35:16;;;;;;;3.80;1.90;;;;;;;10.27;100.00;101295.77;108546;1259;64785;-53
2023/09/28 03:37:44;;;;;;;2.70;1.80;;;;;;;10.24;100.00;101297.79;108571;1257;72738;-53
2023/09/28 03:40:12;;;;;;;2.20;2.00;;;;;;;10.20;100.00;101298.08;105526;1258;60505;-52
2023/09/28 03:42:44;;;;;;;4.60;2.10;;;;;;;10.15;100.00;101297.79;108672;1257;60421;-55
2023/09/28 03:45:16;;;;;;;2.30;2.10;;;;;;;10.15;100.00;101299.23;108615;1257;74455;-52
2023/09/28 03:47:44;;;;;;;3.00;2.30;;;;;;;10.18;100.00;101295.60;108575;1257;67336;-54
2023/09/28 03:50:15;;;;;;;2.80;2.10;;;;;;;10.22;100.00;101301.27;108621;1257;71476;-55
2023/09/28 03:52:43;;;;;;;6.00;2.60;;;;;;;10.28;100.00;101302.76;108966;1254;60133;-53
2023/09/28 03:55:24;;;;;;;6.80;2.90;;;;;;;10.33;100.00;101303.88;108954;1254;60097;-52
2023/09/28 03:57:51;;;;;;;3.10;2.80;;;;;;;10.36;100.00;101303.64;108837;1254;76330;-55
2023/09/28 04:00:19;;;;;;;2.70;2.50;;;;;;;10.33;100.00;101301.36;108965;1255;66588;-55
2023/09/28 04:02:48;;;;;;;4.10;3.80;;;;;;;10.30;100.00;101306.83;108960;1256;72616;-54
2023/09/28 04:05:21;;;;;;;2.90;2.70;;;;;;;10.29;100.00;101306.14;108732;1257;62275;-53
2023/09/28 04:07:49;;;;;;;3.90;2.60;;;;;;;10.30;100.00;101305.39;108910;1253;59670;-53
2023/09/28 04:10:17;;;;;;;3.30;2.90;;;;;;;10.30;100.00;101302.70;105487;1254;73788;-54
2023/09/28 04:12:49;;;;;;;2.40;2.20;;;;;;;10.24;100.00;101300.67;108931;1254;65886;-54
2023/09/28 04:15:16;;;;;;;4.10;2.40;;;;;;;10.16;100.00;101302.80;108940;1256;73128;-53
2023/09/28 04:17:44;;;;;;;2.80;2.60;;;;;;;10.07;100.00;101301.73;108938;1253;60539;-54
2023/09/28 04:20:12;;;;;;;5.00;2.60;;;;;;;10.04;100.00;101303.73;106849;1253;60667;-52
2023/09/28 04:22:40;;;;;;;2.60;2.20;;;;;;;10.09;100.00;101303.67;105134;1256;72641;-53
2023/09/28 04:25:08;;;;;;;2.00;1.90;;;;;;;10.16;100.00;101302.63;104769;1254;66970;-51
2023/09/28 04:27:35;;;;;;;4.20;2.10;;;;;;;10.22;100.00;101301.60;105774;1255;70426;-54
2023/09/28 04:30:04;;;;;;;4.60;2.10;;;;;;;10.23;100.00;101298.52;104567;1254;62466;-52
2023/09/28 04:32:31;;;;;;;2.40;2.20;;;;;;;10.22;100.00;101298.91;105063;1254;60491;-56
2023/09/28 04:35:00;;;;;;;4.90;2.40;;;;;;;10.22;100.00;101300.52;104812;1254;72645;-55
2023/09/28 04:37:27;;;;;;;2.00;1.80;;;;;;;10.24;100.00;101299.96;104708;1256;65781;-54
2023/09/28 04:39:55;;;;;;;4.10;2.10;;;;;;;10.29;100.00;101304.52;104745;1254;72701;-55
2023/09/28 04:42:22;;;;;;;4.50;1.40;;;;;;;10.36;100.00;101307.59;104762;1254;62191;-54
2023/09/28 04:44:49;;;;;;;3.60;2.10;;;;;;;10.43;100.00;101307.25;104770;1253;61703;-54
2023/09/28 04:47:17;;;;;;;4.50;1.90;;;;;;;10.49;100.00;101312.11;108920;1253;73069;-53
2023/09/28 04:49:45;;;;;;;6.00;2.00;;;;;;;10.56;100.00;101312.14;106406;1254;68107;-52
2023/09/28 04:52:13;;;;;;;2.60;2.40;;;;;;;10.62;100.00;101310.91;106477;1257;71460;-53
2023/09/28 04:54:42;;;;;;;9.70;2.80;;;;;;;10.69;100.00;101305.20;104832;1259;60831;-52
2023/09/28 04:57:09;;;;;;;4.20;2.30;;;;;;;10.76;100.00;101305.02;106612;1254;60619;-53
2023/09/28 04:59:40;;;;;;;4.70;2.10;;;;;;;10.77;100.00;101304.65;104903;1253;72551;-54
2023/09/28 05:02:08;;;;;;;2.90;1.60;;;;;;;10.75;100.00;101307.73;105152;1257;65946;-52
2023/09/28 05:04:36;;;;;;;2.40;2.20;;;;;;;10.76;100.00;101309.70;104833;1258;71279;-52
2023/09/28 05:07:04;;;;;;;4.80;2.70;;;;;;;10.78;100.00;101310.37;105000;1259;61706;-53
2023/09/28 05:09:33;;;;;;;6.00;1.90;;;;;;;10.80;100.00;101312.81;105202;1254;60533;-54
2023/09/28 05:12:01;;;;;;;3.60;2.30;;;;;;;10.85;100.00;101315.92;105444;1254;74216;-52
2023/09/28 05:14:31;;;;;;;3.60;2.80;;;;;;;10.92;100.00;101317.17;105360;1257;67444;-52
2023/09/28 05:16:59;;;;;;;2.80;2.10;;;;;;;11.03;100.00;101318.89;104867;1254;71471;-54
2023/09/28 05:19:29;;;;;;;4.40;3.50;;;;;;;11.16;100.00;101316.94;104871;1254;61859;-54
2023/09/28 05:21:58;;;;;;;3.40;2.70;;;;;;;11.33;100.00;101308.04;105312;1254;60547;-53
2023/09/28 05:24:25;;;;;;;4.50;3.30;;;;;;;11.51;100.00;101307.55;104905;1254;73633;-53
2023/09/28 05:26:52;;;;;;;6.80;3.70;;;;;;;11.69;100.00;101304.36;104705;1257;149076;-54
2023/09/28 05:31:01;;;;;;;3.80;3.30;;;;;;;12.00;100.00;101343.96;101886;1295;600988;-53
2023/09/28 05:33:29;;;;;;;8.40;4.10;;;;;;;12.21;100.00;101339.39;104382;1267;59322;-54
2023/09/28 05:35:56;;;;;;;9.10;4.00;;;;;;;12.40;100.00;101333.58;104159;1266;59731;-53
2023/09/28 05:38:24;;;;;;;5.30;4.00;;;;;;;12.58;100.00;101331.58;104310;1266;72324;-55
2023/09/28 05:40:51;;;;;;;5.70;5.10;;;;;;;12.75;100.00;101328.33;108103;1267;65833;-51
2023/09/28 05:43:19;;;;;;;6.30;5.80;;;;;;;12.91;100.00;101325.27;105170;1266;73557;-52
2023/09/28 05:45:46;;;;;;;6.90;6.30;;;;;;;13.06;100.00;101322.07;103889;1266;356877;-53
2023/09/28 05:48:13;;;;;;;5.50;5.00;;;;;;;13.22;100.00;101320.12;103873;1272;59336;-52
2023/09/28 05:50:41;;;;;;;7.30;5.40;;;;;;;13.36;100.00;101311.52;105757;1269;71059;-53
2023/09/28 05:53:09;;;;;;;6.20;5.60;;;;;;;13.50;100.00;101316.06;104091;1269;66786;-54
2023/09/28 05:55:36;;;;;;;6.50;5.90;;;;;;;13.64;100.00;101321.15;104128;1266;71048;-53
2023/09/28 05:58:03;;;;;;;8.40;5.40;;;;;;;13.77;100.00;101318.31;104094;1266;60479;-51
2023/09/28 06:00:31;;;;;;;10.60;6.60;;;;;;;13.92;100.00;101321.93;104092;1272;62097;-53
2023/09/28 06:02:58;;;;;;;9.30;6.10;;;;;;;14.09;100.00;101319.31;103901;1265;72080;-55
2023/09/28 06:05:26;;;;;;;13.70;6.90;;;;;;;14.25;100.00;101319.40;105345;1264;66966;-55
2023/09/28 06:07:54;;;;;;;11.50;6.30;;;;;;;14.41;100.00;101318.41;103734;1266;76896;-52
2023/09/28 06:10:21;;;;;;;14.20;7.30;;;;;;;14.58;100.00;101317.40;105684;1269;60561;-53
2023/09/28 06:12:48;;;;;;;15.40;7.80;;;;;;;14.75;100.00;101314.20;104303;1261;59604;-52
2023/09/28 06:15:16;;;;;;;10.80;7.00;;;;;;;14.90;100.00;101319.87;104237;1264;73447;-51
2023/09/28 06:17:43;;;;;;;8.00;7.10;;;;;;;15.06;100.00;101316.52;104259;1266;68820;-53
2023/09/28 06:20:11;;;;;;;10.40;8.50;;;;;;;15.20;100.00;101315.00;104334;1267;70683;-51
2023/09/28 06:22:39;;;;;;;8.00;7.10;;;;;;;15.32;100.00;101314.31;104266;1272;59761;-52
2023/09/28 06:25:08;;;;;;;10.70;6.60;;;;;;;15.43;100.00;101319.80;104367;1266;59679;-51
2023/09/28 06:27:37;;;;;;;11.10;7.70;;;;;;;15.52;100.00;101316.33;105440;1263;70867;-52
2023/09/28 06:30:05;;;;;;;12.40;7.30;;;;;;;15.63;100.00;101312.99;106432;1263;65689;-50
2023/09/28 06:32:32;;;;;;;7.10;5.10;;;;;;;15.72;100.00;101309.67;105004;1260;71513;-51
2023/09/28 06:35:01;;;;;;;10.10;5.30;;;;;;;15.81;100.00;101307.25;104069;1264;64256;-53
2023/09/28 06:37:30;;;;;;;7.20;6.50;;;;;;;15.92;100.00;101311.11;104413;1268;60085;-52
2023/09/28 06:39:57;;;;;;;6.40;5.90;;;;;;;16.04;100.00;101314.73;104358;1266;72168;-50
2023/09/28 06:42:24;;;;;;;9.70;6.90;;;;;;;16.15;100.00;101320.16;104152;1264;65860;-54
2023/09/28 06:45:03;;;;;;;12.20;5.70;;;;;;;16.30;100.00;101323.12;104182;1269;73140;-53
2023/09/28 06:47:31;;;;;;;6.70;5.50;;;;;;;16.42;100.00;101322.36;107488;1268;60276;-52
2023/09/28 06:50:16;;;;;;;9.30;6.70;;;;;;;16.54;100.00;101325.75;104533;1261;59888;-53
2023/09/28 06:52:44;;;;;;;7.80;6.00;;;;;;;16.64;100.00;101322.73;108371;1262;73566;-54
2023/09/28 06:55:11;;;;;;;9.00;5.70;;;;;;;16.75;100.00;101320.98;108367;1263;65999;-54
2023/09/28 06:57:39;;;;;;;8.60;5.70;;;;;;;16.85;100.00;101323.54;108388;1263;72964;-55
2023/09/28 07:00:09;;;;;;;9.80;6.30;;;;;;;16.96;100.00;101324.09;104417;1269;61741;-54
2023/09/28 07:02:36;;;;;;;12.10;5.60;;;;;;;17.08;100.00;101322.01;108426;1261;58882;-53
2023/09/28 07:05:04;;;;;;;9.00;5.10;;;;;;;17.20;100.00;101321.04;108417;1260;73122;-54
2023/09/28 07:07:32;;;;;;;14.70;7.60;;;;;;;17.32;100.00;101316.23;108461;1264;67122;-53
2023/09/28 07:09:59;;;;;;;8.40;5.70;;;;;;;17.44;100.00;101320.70;108502;1263;71471;-52
2023/09/28 07:12:26;;;;;;;10.20;7.00;;;;;;;17.57;100.00;101316.40;108499;1263;59879;-52
2023/09/28 07:14:54;;;;;;;10.70;7.30;;;;;;;17.70;100.00;101319.00;108556;1261;60239;-53
2023/09/28 07:17:21;;;;;;;6.90;6.30;;;;;;;17.82;100.00;101320.36;108312;1267;71931;-54
2023/09/28 07:19:48;;;;;;;15.10;8.80;;;;;;;17.93;100.00;101325.55;108353;1264;67157;-53
2023/09/28 07:22:16;;;;;;;10.80;7.10;;;;;;;18.04;100.00;101324.80;104926;1269;72714;-54
2023/09/28 07:24:44;;;;;;;10.50;7.20;;;;;;;18.13;100.00;101325.00;104141;1264;60540;-54
2023/09/28 07:27:11;;;;;;;13.70;6.90;;;;;;;18.22;100.00;101322.02;104408;1263;59771;-56
2023/09/28 07:29:38;;;;;;;13.00;5.80;;;;;;;18.29;100.00;101323.22;104313;1267;74062;-55
2023/09/28 07:32:07;;;;;;;15.30;8.00;;;;;;;18.38;100.00;101320.72;104295;1269;66763;-53
2023/09/28 07:34:35;;;;;;;10.30;6.50;;;;;;;18.47;100.00;101324.02;105336;1267;72687;-54
2023/09/28 07:37:03;;;;;;;8.30;6.50;;;;;;;18.56;100.00;101322.08;104471;1269;60508;-53
2023/09/28 07:39:31;;;;;;;15.90;6.70;;;;;;;18.65;100.00;101321.26;104451;1263;60826;-54
2023/09/28 07:41:59;;;;;;;11.90;6.20;;;;;;;18.73;100.00;101325.52;104128;1267;75428;-53
2023/09/28 07:44:27;;;;;;;5.80;5.40;;;;;;;18.80;100.00;101323.06;104348;1266;67009;-52
2023/09/28 07:46:55;;;;;;;10.60;6.10;;;;;;;18.89;100.00;101326.77;104318;1265;72802;-53
2023/09/28 07:49:23;;;;;;;9.10;5.80;;;;;;;18.99;100.00;101327.45;105481;1262;60482;-55
2023/09/28 07:51:50;;;;;;;14.50;4.90;;;;;;;19.07;100.00;101322.80;104576;1260;59659;-54
2023/09/28 07:54:17;;;;;;;6.40;5.30;;;;;;;19.16;100.00;101321.67;104632;1264;73354;-56
2023/09/28 07:56:45;;;;;;;11.50;5.60;;;;;;;19.25;100.00;101324.39;104347;1263;66894;-54
2023/09/28 07:59:12;;;;;;;12.60;5.40;;;;;;;19.37;100.00;101320.25;104442;1266;72870;-56
2023/09/28 08:01:41;;;;;;;7.60;5.00;;;;;;;19.47;100.00;101319.84;105066;1263;59827;-56
2023/09/28 08:04:09;;;;;;;10.70;4.80;;;;;;;19.57;100.00;101318.73;104945;1264;59719;-55
2023/09/28 08:06:36;;;;;;;8.30;4.40;;;;;;;19.65;100.00;101318.96;104668;1263;72067;-53
2023/09/28 08:12:09;;;;;;;5.70;4.00;;;;;;;19.81;100.00;101396.65;101541;1291;600326;-53
2023/09/28 08:14:37;;;;;;;7.60;4.40;;;;;;;19.91;100.00;101388.02;104787;1262;59297;-51
2023/09/28 08:17:04;;;;;;;10.10;5.10;;;;;;;19.99;100.00;101379.67;104655;1262;59207;-52
2023/09/28 08:19:32;;;;;;;6.60;4.30;;;;;;;20.05;100.00;101371.83;104631;1262;71046;-52
2023/09/28 08:21:59;;;;;;;7.00;3.20;;;;;;;20.10;100.00;101370.05;104672;1260;67668;-54
2023/09/28 08:24:26;;;;;;;5.40;3.40;;;;;;;20.16;100.00;101370.58;104515;1262;72785;-52
2023/09/28 08:26:54;;;;;;;7.20;3.50;;;;;;;20.24;100.00;101367.52;104444;1253;163471;-54
2023/09/28 08:29:21;;;;;;;9.10;3.30;;;;;;;20.32;100.00;101365.39;104622;1255;60144;-55
2023/09/28 08:31:48;;;;;;;7.10;4.20;;;;;;;20.40;100.00;101361.63;104746;1259;72407;-54
2023/09/28 08:34:16;;;;;;;6.70;3.60;;;;;;;20.48;100.00;101360.75;108854;1253;66877;-54
2023/09/28 08:37:03;;;;;;;7.00;3.80;;;;;;;20.56;100.00;101364.02;108819;1256;71478;-52
2023/09/28 08:39:31;;;;;;;9.70;2.90;;;;;;;20.65;100.00;101362.23;107250;1259;60283;-53
2023/09/28 08:42:01;;;;;;;8.70;2.90;;;;;;;20.72;100.00;101360.11;106940;1257;59803;-51
2023/09/28 08:44:31;;;;;;;8.20;3.20;;;;;;;20.81;100.00;101355.16;104550;1262;72825;-53
2023/09/28 08:46:59;;;;;;;6.40;2.50;;;;;;;20.90;100.00;101350.38;104685;1255;66265;-52
2023/09/28 08:49:27;;;;;;;7.70;3.20;;;;;;;20.98;100.00;101349.41;105248;1261;71452;-54
2023/09/28 08:51:55;;;;;;;8.00;2.60;;;;;;;21.04;100.00;101349.54;105050;1260;61694;-53
2023/09/28 08:54:22;;;;;;;8.00;3.20;;;;;;;21.11;100.00;101348.36;104556;1261;59559;-54
2023/09/28 08:56:52;;;;;;;5.80;3.80;;;;;;;21.17;100.00;101348.00;104696;1260;73038;-54
2023/09/28 08:59:20;;;;;;;3.50;2.20;;;;;;;21.22;100.00;101346.80;106114;1256;65774;-56
2023/09/28 09:01:47;;;;;;;7.70;2.40;;;;;;;21.28;100.00;101345.48;105308;1260;71479;-53
2023/09/28 09:04:15;;;;;;;7.20;3.20;;;;;;;21.35;100.00;101350.27;104700;1256;59680;-56
2023/09/28 09:06:42;;;;;;;4.60;1.90;;;;;;;21.40;100.00;101343.52;104540;1257;59639;-54
2023/09/28 09:09:15;;;;;;;5.80;2.60;;;;;;;21.44;100.00;101343.06;104739;1256;74050;-55
2023/09/28 09:11:52;;;;;;;4.80;2.00;;;;;;;21.45;100.00;101343.33;104920;1256;66892;-55
2023/09/28 09:14:24;;;;;;;6.60;2.00;;;;;;;21.48;100.00;101342.73;107491;1256;72887;-53
2023/09/28 09:16:52;;;;;;;6.00;2.70;;;;;;;21.53;100.00;101342.06;108764;1256;59310;-54
2023/09/28 09:19:20;;;;;;;8.00;2.20;;;;;;;21.58;100.00;101339.72;108729;1256;58839;-55
2023/09/28 09:21:47;;;;;;;5.50;1.80;;;;;;;21.62;100.00;101341.08;105293;1259;74558;-55
2023/09/28 09:24:15;;;;;;;2.80;1.50;;;;;;;21.67;100.00;101337.46;104546;1260;66994;-55
2023/09/28 09:26:47;;;;;;;5.00;2.20;;;;;;;21.72;100.00;101339.10;104834;1256;71441;-53
2023/09/28 09:29:15;;;;;;;3.20;1.40;;;;;;;21.79;100.00;101339.70;105244;1259;60144;-55
2023/09/28 09:31:44;;;;;;;3.50;1.60;;;;;;;21.86;100.00;101340.11;105253;1259;60450;-54
2023/09/28 09:34:12;;;;;;;3.30;1.60;;;;;;;21.92;100.00;101340.03;106015;1259;73148;-55
2023/09/28 09:36:41;;;;;;;2.90;1.60;;;;;;;21.98;100.00;101341.84;105084;1257;65733;-54
2023/09/28 09:39:08;;;;;;;4.60;1.50;;;;;;;22.04;100.00;101337.02;104743;1258;71301;-53
2023/09/28 09:41:45;;;;;;;2.80;1.60;;;;;;;22.08;100.00;101335.08;105225;1262;59572;-53
2023/09/28 09:44:17;;;;;;;2.60;2.10;;;;;;;22.13;100.00;101339.85;104906;1262;60747;-53
2023/09/28 09:46:54;;;;;;;2.70;1.80;;;;;;;22.17;100.00;101332.80;104616;1260;71822;-56
2023/09/28 09:49:24;;;;;;;4.00;1.70;;;;;;;22.24;100.00;101335.25;105144;1256;65841;-55
2023/09/28 09:51:52;;;;;;;3.40;1.40;;;;;;;22.30;100.00;101334.63;104880;1258;71266;-52
2023/09/28 09:54:20;;;;;;;4.40;2.00;;;;;;;22.34;100.00;101331.43;104625;1262;61798;-53
2023/09/28 09:56:50;;;;;;;5.90;1.80;;;;;;;22.36;100.00;101335.27;104706;1256;59646;-55
2023/09/28 09:59:20;;;;;;;8.40;2.30;;;;;;;22.39;100.00;101331.55;104605;1257;73081;-54
2023/09/28 10:01:48;;;;;;;3.60;2.10;;;;;;;22.42;100.00;101330.11;104892;1261;67900;-52
2023/09/28 10:04:16;;;;;;;4.10;1.50;;;;;;;22.44;100.00;101331.04;105032;1262;73251;-53
2023/09/28 10:06:46;;;;;;;4.80;1.40;;;;;;;22.48;100.00;101329.48;104584;1256;59659;-53
2023/09/28 10:09:18;;;;;;;2.00;1.30;;;;;;;22.51;100.00;101331.09;104713;1262;59734;-53
2023/09/28 10:11:52;;;;;;;2.40;1.20;;;;;;;22.56;100.00;101328.33;104566;1261;71888;-53
2023/09/28 10:14:21;;;;;;;7.30;1.70;;;;;;;22.60;100.00;101332.06;107973;1257;65771;-54
2023/09/28 10:16:50;;;;;;;7.60;1.70;;;;;;;22.63;100.00;101331.23;105453;1259;71927;-54
2023/09/28 10:19:20;;;;;;;2.80;1.30;;;;;;;22.68;100.00;101330.38;104491;1260;59721;-55
2023/09/28 10:21:48;;;;;;;3.20;1.40;;;;;;;22.72;100.00;101326.95;105453;1257;60200;-55
2023/09/28 10:24:17;;;;;;;5.90;1.20;;;;;;;22.77;100.00;101329.02;104603;1256;73139;-56
2023/09/28 10:26:49;;;;;;;8.10;1.30;;;;;;;22.80;100.00;101327.66;105800;1257;66913;-56
2023/09/28 10:29:28;;;;;;;7.90;1.60;;;;;;;22.83;100.00;101325.80;104920;1257;70491;-57
2023/09/28 10:31:56;;;;;;;4.90;1.00;;;;;;;22.86;100.00;101333.04;106369;1260;60726;-55
2023/09/28 10:34:43;;;;;;;6.20;1.10;;;;;;;22.92;100.00;101329.48;104617;1257;60114;-54
2023/09/28 10:37:18;;;;;;;10.00;1.40;;;;;;;22.98;100.00;101332.00;104604;1260;71925;-56
2023/09/28 10:39:48;;;;;;;3.70;1.60;;;;;;;23.03;100.00;101327.20;104837;1256;67951;-54
2023/09/28 10:42:16;;;;;;;5.80;1.20;;;;;;;23.09;100.00;101324.98;104685;1257;72816;-53
2023/09/28 10:44:55;;;;;;;4.30;1.10;;;;;;;23.13;100.00;101323.14;104631;1262;59856;-54
2023/09/28 10:47:23;;;;;;;2.70;1.40;;;;;;;23.18;100.00;101315.48;105012;1260;59742;-55
2023/09/28 10:49:58;;;;;;;2.90;1.20;;;;;;;23.21;100.00;101316.84;104705;1260;73134;-52
2023/09/28 10:52:25;;;;;;;6.40;1.40;;;;;;;23.26;100.00;101314.84;104776;1257;68013;-54
2023/09/28 10:54:53;;;;;;;5.20;1.50;;;;;;;23.30;100.00;101317.77;104739;1259;72854;-54
2023/09/28 10:57:31;;;;;;;5.70;1.50;;;;;;;23.35;100.00;101319.65;104470;1262;60154;-55
2023/09/28 11:00:00;;;;;;;5.20;1.70;;;;;;;23.38;100.00;101316.27;104608;1262;59601;-55
2023/09/28 11:02:28;;;;;;;3.20;1.70;;;;;;;23.38;100.00;101313.10;108874;1256;71852;-55
2023/09/28 11:04:59;;;;;;;4.00;1.40;;;;;;;23.41;100.00;101313.86;108736;1256;68043;-57
2023/09/28 11:07:27;;;;;;;5.50;1.40;;;;;;;23.44;100.00;101311.98;108821;1256;72716;-56
2023/09/28 11:09:55;;;;;;;2.30;1.30;;;;;;;23.48;100.00;101308.02;108839;1259;57876;-56
2023/09/28 11:12:22;;;;;;;5.90;2.00;;;;;;;23.51;100.00;101308.34;108765;1256;59224;-56
2023/09/28 11:14:51;;;;;;;3.40;1.20;;;;;;;23.54;100.00;101304.43;108752;1259;72069;-57
2023/09/28 11:17:19;;;;;;;3.90;1.20;;;;;;;23.58;100.00;101304.85;108833;1256;67894;-56
2023/09/28 11:20:06;;;;;;;6.10;1.40;;;;;;;23.63;100.00;101302.64;108117;1257;73221;-55
2023/09/28 11:22:34;;;;;;;6.00;1.20;;;;;;;23.68;100.00;101303.13;108813;1257;60338;-55
2023/09/28 11:25:01;;;;;;;5.30;1.60;;;;;;;23.72;100.00;101298.45;108620;1261;60170;-57
2023/09/28 11:27:29;;;;;;;5.90;1.60;;;;;;;23.75;100.00;101297.81;108865;1256;72887;-56